KOXC/OXC METAR and TAF weather

Enter ICAO airport designator
Station Type Date Time Source
KOXC METAR 2021/06/22 23:09 UTC NOAA

KOXC 222309Z 32006KT 9SM -RA SCT008 OVC095 15/15 A2978 RMK AO2 P0002


Station Type Date Time Source
KOXC Decoded METAR 2021/06/22 23:09 UTC NOAA

Oxford, Waterbury-Oxford Airport, CT, United States (KOXC) 41-29N 073-08W
Jun 22, 2021 - 07:09 PM EDT / 2021.06.22 2309 UTC
Wind: from the NW (320 degrees) at 7 MPH (6 KT):0
Visibility: 9 mile(s):0
Sky conditions: overcast
Weather: light rain
Precipitation last hour: 0.02 inches
Temperature: 59 F (15 C)
Dew Point: 59 F (15 C)
Relative Humidity: 100%
Pressure (altimeter): 29.78 in. Hg (1008 hPa)
ob: KOXC 222309Z 32006KT 9SM -RA SCT008 OVC095 15/15 A2978 RMK AO2 P0002
cycle: 23

Station Type Date Time Source
KOXC TAF UTC NOAA

Error!

Example: see airport list